createdAt,value
2017-07-15T00:02:19.667Z,16.00
2017-07-15T00:04:47.158Z,16.00
2017-07-15T00:07:15.432Z,15.90
2017-07-15T00:09:42.965Z,15.90
2017-07-15T00:12:10.511Z,15.90
2017-07-15T00:14:38.034Z,15.90
2017-07-15T00:17:07.038Z,16.00
2017-07-15T00:19:35.348Z,16.00
2017-07-15T00:22:03.615Z,16.00
2017-07-15T00:24:31.908Z,16.00
2017-07-15T00:26:59.425Z,16.00
2017-07-15T00:29:27.688Z,15.90
2017-07-15T00:31:55.214Z,15.90
2017-07-15T00:34:22.716Z,15.90
2017-07-15T00:36:50.237Z,15.90
2017-07-15T00:39:17.741Z,15.90
2017-07-15T00:41:45.259Z,15.90
2017-07-15T00:44:12.759Z,15.90
2017-07-15T00:46:40.676Z,15.90
2017-07-15T00:49:08.171Z,15.90
2017-07-15T00:51:35.668Z,15.90
2017-07-15T00:54:03.195Z,15.90
2017-07-15T00:56:31.464Z,16.00
2017-07-15T00:58:59.755Z,16.00
2017-07-15T01:01:27.265Z,16.00
2017-07-15T01:03:54.791Z,15.90
2017-07-15T01:06:22.282Z,15.90
2017-07-15T01:08:50.206Z,15.90
2017-07-15T01:11:17.706Z,15.90
2017-07-15T01:13:45.214Z,15.90
2017-07-15T01:16:12.745Z,15.90
2017-07-15T01:18:40.265Z,15.90
2017-07-15T01:21:07.792Z,16.00
2017-07-15T01:23:35.287Z,15.90
2017-07-15T01:26:03.204Z,16.00
2017-07-15T01:28:31.475Z,16.00
2017-07-15T01:30:59.404Z,16.00
2017-07-15T01:33:26.904Z,15.90
2017-07-15T01:35:54.404Z,15.90
2017-07-15T01:38:22.692Z,15.90
2017-07-15T01:40:50.202Z,15.80
2017-07-15T01:43:17.734Z,15.80
2017-07-15T01:45:45.232Z,15.80
2017-07-15T01:48:12.815Z,15.80
2017-07-15T01:50:40.316Z,15.80
2017-07-15T01:53:09.339Z,15.80
2017-07-15T01:55:36.836Z,15.80
2017-07-15T01:58:05.145Z,15.70
2017-07-15T02:00:32.646Z,15.70
2017-07-15T02:03:01.300Z,15.60
2017-07-15T02:05:29.220Z,15.70
2017-07-15T02:07:57.494Z,15.80
2017-07-15T02:10:25.783Z,15.70
2017-07-15T02:12:53.690Z,15.70
2017-07-15T02:15:21.223Z,15.60
2017-07-15T02:17:48.725Z,15.60
2017-07-15T02:20:16.249Z,15.60
2017-07-15T02:22:43.767Z,15.60
2017-07-15T02:25:11.296Z,15.60
2017-07-15T02:27:38.800Z,15.60
2017-07-15T02:30:06.695Z,15.60
2017-07-15T02:32:34.232Z,15.50
2017-07-15T02:35:02.867Z,15.60
2017-07-15T02:37:30.391Z,15.60
2017-07-15T02:39:59.396Z,15.60
2017-07-15T02:42:26.935Z,15.60
2017-07-15T02:44:55.579Z,15.60
2017-07-15T02:47:23.091Z,15.60
2017-07-15T02:49:50.595Z,15.60
2017-07-15T02:52:18.514Z,15.60
2017-07-15T02:54:46.124Z,15.60
2017-07-15T02:57:14.400Z,15.60
2017-07-15T02:59:41.928Z,15.50
2017-07-15T03:02:09.448Z,15.50
2017-07-15T03:04:36.972Z,15.50
2017-07-15T03:07:04.881Z,15.40
2017-07-15T03:09:32.413Z,15.30
2017-07-15T03:11:59.916Z,15.30
2017-07-15T03:14:28.592Z,15.30
2017-07-15T03:16:56.096Z,15.30
2017-07-15T03:19:23.600Z,15.10
2017-07-15T03:21:51.128Z,15.00
2017-07-15T03:24:18.627Z,14.90
2017-07-15T03:26:58.009Z,14.90
2017-07-15T03:29:25.635Z,14.80
2017-07-15T03:31:53.180Z,14.80
2017-07-15T03:34:20.702Z,14.70
2017-07-15T03:36:49.013Z,14.60
2017-07-15T03:39:16.521Z,14.60
2017-07-15T03:41:44.824Z,14.50
2017-07-15T03:44:12.336Z,14.60
2017-07-15T03:46:39.839Z,14.50
2017-07-15T03:49:07.358Z,14.50
2017-07-15T03:51:34.879Z,14.40
2017-07-15T03:54:03.628Z,14.40
2017-07-15T03:56:31.136Z,14.40
2017-07-15T03:58:58.655Z,14.40
2017-07-15T04:01:26.560Z,14.50
2017-07-15T04:03:54.087Z,14.40
2017-07-15T04:06:21.583Z,14.40
2017-07-15T04:08:49.140Z,14.40
2017-07-15T04:11:16.649Z,14.40
2017-07-15T04:13:44.157Z,14.40
2017-07-15T04:16:11.687Z,14.40
2017-07-15T04:18:39.960Z,14.40
2017-07-15T04:21:08.988Z,14.30
2017-07-15T04:23:37.257Z,14.40
2017-07-15T04:26:05.539Z,14.40
2017-07-15T04:28:33.041Z,14.30
2017-07-15T04:31:00.588Z,14.30
2017-07-15T04:33:28.860Z,14.40
2017-07-15T04:35:56.382Z,14.30
2017-07-15T04:38:23.895Z,14.30
2017-07-15T04:40:51.396Z,14.30
2017-07-15T04:43:18.953Z,14.30
2017-07-15T04:45:46.846Z,14.30
2017-07-15T04:48:14.763Z,14.30
2017-07-15T04:50:42.268Z,14.40
2017-07-15T04:53:09.861Z,14.40
2017-07-15T04:55:37.360Z,14.50
2017-07-15T04:58:04.892Z,14.50
2017-07-15T05:00:32.400Z,14.50
2017-07-15T05:02:59.920Z,14.50
2017-07-15T05:05:27.443Z,14.50
2017-07-15T05:07:55.339Z,14.60
2017-07-15T05:10:22.850Z,14.60
2017-07-15T05:12:50.363Z,14.60
2017-07-15T05:15:17.878Z,14.70
2017-07-15T05:17:45.383Z,14.70
2017-07-15T05:20:12.913Z,14.80
2017-07-15T05:22:40.419Z,14.90
2017-07-15T05:25:08.701Z,15.00
2017-07-15T05:27:36.969Z,15.00
2017-07-15T05:30:04.495Z,15.00
2017-07-15T05:32:33.495Z,15.20
2017-07-15T05:35:01.761Z,15.30
2017-07-15T05:37:29.280Z,15.40
2017-07-15T05:39:56.776Z,15.50
2017-07-15T05:42:24.687Z,15.50
2017-07-15T05:44:52.595Z,15.50
2017-07-15T05:47:20.128Z,15.60
2017-07-15T05:49:47.630Z,15.50
2017-07-15T05:52:15.164Z,15.60
2017-07-15T05:54:43.436Z,15.70
2017-07-15T05:57:11.740Z,15.80
2017-07-15T05:59:39.645Z,16.00
2017-07-15T06:02:07.544Z,16.10
2017-07-15T06:04:35.077Z,16.10
2017-07-15T06:07:02.575Z,15.90
2017-07-15T06:11:58.939Z,15.80
2017-07-15T06:14:27.599Z,15.60
2017-07-15T06:16:55.115Z,15.60
2017-07-15T06:19:22.628Z,15.50
2017-07-15T06:21:50.145Z,15.30
2017-07-15T06:24:18.072Z,15.30
2017-07-15T06:26:45.579Z,15.30
2017-07-15T06:29:13.119Z,15.20
2017-07-15T06:31:40.664Z,15.10
2017-07-15T06:34:08.175Z,15.20
2017-07-15T06:36:36.832Z,15.40
2017-07-15T06:39:04.736Z,15.50
2017-07-15T06:41:33.020Z,15.50
2017-07-15T06:44:00.528Z,15.50
2017-07-15T06:46:28.441Z,15.50
2017-07-15T06:48:55.956Z,15.60
2017-07-15T06:51:23.487Z,15.80
2017-07-15T06:53:53.244Z,15.90
2017-07-15T06:56:20.759Z,16.00
2017-07-15T06:58:50.411Z,15.80
2017-07-15T07:01:18.444Z,15.90
2017-07-15T07:03:45.996Z,15.80
2017-07-15T07:06:14.647Z,15.60
2017-07-15T07:08:42.169Z,15.50
2017-07-15T07:11:09.762Z,15.40
2017-07-15T07:13:37.296Z,15.30
2017-07-15T07:16:05.567Z,15.20
2017-07-15T07:18:33.072Z,15.00
2017-07-15T07:21:00.599Z,15.00
2017-07-15T07:23:28.115Z,14.90
2017-07-15T07:25:55.839Z,14.90
2017-07-15T07:28:23.761Z,14.90
2017-07-15T07:30:51.279Z,15.00
2017-07-15T07:33:18.793Z,15.20
2017-07-15T07:35:46.370Z,15.20
2017-07-15T07:38:13.883Z,15.30
2017-07-15T07:40:41.408Z,15.30
2017-07-15T07:43:10.044Z,15.40
2017-07-15T07:45:39.095Z,15.60
2017-07-15T07:48:06.613Z,16.00
2017-07-15T07:50:34.133Z,16.10
2017-07-15T07:53:01.655Z,16.10
2017-07-15T07:55:29.548Z,16.30
2017-07-15T07:57:57.071Z,16.50
2017-07-15T08:00:24.579Z,16.80
2017-07-15T08:02:52.872Z,16.90
2017-07-15T08:05:20.375Z,17.40
2017-07-15T08:07:49.057Z,18.70
2017-07-15T08:10:16.564Z,19.50
2017-07-15T08:12:45.223Z,19.50
2017-07-15T08:15:12.784Z,19.30
2017-07-15T08:17:40.307Z,18.70
2017-07-15T08:20:07.812Z,18.30
2017-07-15T08:22:36.079Z,17.90
2017-07-15T08:25:03.592Z,17.70
2017-07-15T08:27:31.092Z,17.60
2017-07-15T08:29:59.382Z,17.70
2017-07-15T08:32:27.648Z,17.50
2017-07-15T08:34:55.172Z,17.60
2017-07-15T08:37:22.720Z,17.70
2017-07-15T08:39:50.239Z,17.70
2017-07-15T08:42:17.745Z,17.50
2017-07-15T08:44:46.420Z,17.40
2017-07-15T08:47:14.101Z,17.50
2017-07-15T08:49:42.375Z,17.60
2017-07-15T08:52:10.672Z,17.60
2017-07-15T08:54:38.180Z,17.70
2017-07-15T08:57:05.704Z,17.90
2017-07-15T08:59:33.203Z,18.00
2017-07-15T09:02:01.493Z,17.90
2017-07-15T09:04:29.379Z,17.70
2017-07-15T09:06:58.040Z,17.80
2017-07-15T09:09:25.560Z,17.70
2017-07-15T09:11:53.079Z,17.60
2017-07-15T09:14:21.735Z,17.50
2017-07-15T09:16:49.275Z,17.40
2017-07-15T09:19:18.281Z,17.30
2017-07-15T09:21:45.784Z,17.20
2017-07-15T09:24:13.316Z,17.20
2017-07-15T09:26:40.838Z,17.30
2017-07-15T09:29:08.364Z,17.40
2017-07-15T09:31:35.867Z,17.60
2017-07-15T09:34:03.399Z,18.00
2017-07-15T09:36:31.302Z,19.40
2017-07-15T09:41:27.677Z,20.10
2017-07-15T09:43:55.186Z,19.50
2017-07-15T09:46:23.496Z,19.00
2017-07-15T09:48:51.012Z,18.60
2017-07-15T09:51:18.551Z,18.30
2017-07-15T09:53:46.072Z,18.00
2017-07-15T09:56:13.598Z,17.80
2017-07-15T09:58:41.505Z,17.60
2017-07-15T10:01:09.058Z,17.50
2017-07-15T10:03:36.955Z,17.50
2017-07-15T10:06:04.876Z,17.50
2017-07-15T10:08:33.895Z,17.40
2017-07-15T10:11:01.796Z,17.20
2017-07-15T10:13:29.720Z,17.20
2017-07-15T10:15:58.732Z,17.30
2017-07-15T10:18:26.655Z,17.40
2017-07-15T10:20:54.152Z,17.50
2017-07-15T10:23:22.082Z,17.60
2017-07-15T10:25:49.590Z,17.70
2017-07-15T10:28:17.098Z,17.90
2017-07-15T10:30:46.123Z,18.20
2017-07-15T10:33:13.627Z,18.60
2017-07-15T10:35:41.150Z,18.70
2017-07-15T10:38:09.420Z,19.00
2017-07-15T10:40:36.948Z,19.30
2017-07-15T10:45:34.556Z,20.10
2017-07-15T10:48:02.047Z,20.00
2017-07-15T10:50:29.544Z,19.80
2017-07-15T10:52:57.075Z,19.60
2017-07-15T10:55:24.579Z,19.50
2017-07-15T10:57:52.096Z,19.60
2017-07-15T11:00:19.994Z,19.50
2017-07-15T11:02:48.344Z,19.50
2017-07-15T11:05:16.612Z,19.60
2017-07-15T11:07:44.108Z,19.50
2017-07-15T11:10:11.648Z,19.30
2017-07-15T11:12:39.157Z,19.20
2017-07-15T11:15:06.677Z,19.00
2017-07-15T11:17:34.187Z,18.70
2017-07-15T11:20:01.722Z,18.70
2017-07-15T11:22:29.616Z,18.70
2017-07-15T11:24:57.139Z,18.60
2017-07-15T11:27:24.655Z,18.50
2017-07-15T11:29:52.179Z,18.60
2017-07-15T11:32:19.701Z,18.60
2017-07-15T11:34:47.206Z,18.70
2017-07-15T11:37:14.746Z,18.80
2017-07-15T11:39:42.276Z,19.00
2017-07-15T11:42:10.187Z,18.90
2017-07-15T11:44:38.453Z,18.60
2017-07-15T11:47:05.989Z,18.40
2017-07-15T11:49:33.489Z,18.00
2017-07-15T11:52:01.011Z,17.90
2017-07-15T11:54:28.523Z,17.90
2017-07-15T11:56:56.061Z,17.90
2017-07-15T11:59:23.568Z,17.90
2017-07-15T12:01:51.468Z,18.10
2017-07-15T12:04:18.988Z,18.20
2017-07-15T12:06:46.500Z,18.10
2017-07-15T12:09:14.026Z,18.10
2017-07-15T12:11:41.520Z,18.10
2017-07-15T12:14:09.045Z,18.10
2017-07-15T12:16:36.556Z,17.90
2017-07-15T12:19:04.468Z,18.00
2017-07-15T12:21:31.993Z,18.10
2017-07-15T12:23:59.527Z,18.20
2017-07-15T12:26:27.792Z,18.30
2017-07-15T12:31:24.946Z,18.70
2017-07-15T12:33:52.458Z,18.50
2017-07-15T12:36:19.987Z,18.50
2017-07-15T12:38:47.488Z,18.50
2017-07-15T12:41:15.006Z,18.50
2017-07-15T12:43:42.526Z,18.60
2017-07-15T12:46:10.061Z,18.70
2017-07-15T12:48:37.572Z,18.90
2017-07-15T12:51:05.112Z,19.00
2017-07-15T12:53:32.611Z,19.20
2017-07-15T12:56:00.146Z,19.10
2017-07-15T12:58:27.656Z,19.20
2017-07-15T13:00:55.923Z,19.30
2017-07-15T13:03:23.444Z,19.30
2017-07-15T13:05:51.712Z,19.20
2017-07-15T13:08:19.631Z,19.20
2017-07-15T13:10:47.149Z,19.00
2017-07-15T13:13:16.180Z,18.90
2017-07-15T13:15:44.468Z,18.90
2017-07-15T13:18:12.390Z,18.90
2017-07-15T13:20:40.299Z,18.80
2017-07-15T13:23:08.223Z,18.90
2017-07-15T13:25:35.720Z,19.00
2017-07-15T13:28:04.371Z,18.80
2017-07-15T13:30:31.895Z,18.90
2017-07-15T13:33:00.903Z,19.00
2017-07-15T13:35:28.833Z,19.00
2017-07-15T13:37:57.099Z,19.00
2017-07-15T13:40:24.627Z,19.10
2017-07-15T13:42:52.170Z,18.80
2017-07-15T13:45:19.751Z,18.70
2017-07-15T13:47:47.254Z,18.60
2017-07-15T13:50:15.909Z,18.50
2017-07-15T13:52:43.467Z,18.60
2017-07-15T13:55:11.016Z,18.60
2017-07-15T13:57:39.286Z,18.70
2017-07-15T14:00:07.199Z,18.80
2017-07-15T14:02:34.723Z,18.90
2017-07-15T14:05:02.627Z,18.90
2017-07-15T14:07:30.908Z,18.90
2017-07-15T14:09:58.800Z,19.10
2017-07-15T14:12:26.328Z,19.00
2017-07-15T14:14:54.971Z,18.90
2017-07-15T14:17:22.496Z,18.90
2017-07-15T14:19:50.006Z,18.90
2017-07-15T14:22:17.546Z,18.90
2017-07-15T14:24:45.826Z,19.00
2017-07-15T14:27:13.326Z,19.20
2017-07-15T14:29:40.856Z,19.30
2017-07-15T14:32:08.353Z,19.20
2017-07-15T14:34:35.902Z,19.30
2017-07-15T14:37:04.552Z,19.30
2017-07-15T14:39:32.847Z,19.40
2017-07-15T14:42:00.755Z,19.40
2017-07-15T14:44:28.288Z,19.40
2017-07-15T14:46:56.939Z,19.40
2017-07-15T14:49:24.858Z,19.40
2017-07-15T14:51:53.493Z,19.50
2017-07-15T14:54:20.997Z,19.60
2017-07-15T14:56:49.676Z,19.40
2017-07-15T14:59:17.948Z,19.30
2017-07-15T15:01:45.867Z,19.30
2017-07-15T15:04:14.180Z,19.40
2017-07-15T15:06:42.100Z,19.40
2017-07-15T15:09:09.598Z,19.50
2017-07-15T15:11:37.150Z,19.40
2017-07-15T15:14:05.064Z,19.30
2017-07-15T15:16:32.605Z,19.20
2017-07-15T15:19:00.506Z,19.20
2017-07-15T15:21:28.036Z,19.20
2017-07-15T15:23:56.328Z,19.10
2017-07-15T15:26:24.627Z,19.00
2017-07-15T15:28:52.158Z,19.00
2017-07-15T15:31:20.427Z,18.90
2017-07-15T15:33:48.717Z,18.80
2017-07-15T15:36:16.212Z,18.80
2017-07-15T15:38:43.736Z,18.80
2017-07-15T15:41:11.243Z,18.90
2017-07-15T15:43:40.267Z,19.00
2017-07-15T15:46:07.767Z,19.10
2017-07-15T15:48:35.289Z,19.10
2017-07-15T15:51:03.680Z,19.20
2017-07-15T15:56:00.172Z,19.10
2017-07-15T15:58:29.192Z,19.00
2017-07-15T16:00:56.729Z,18.90
2017-07-15T16:03:24.277Z,18.80
2017-07-15T16:05:51.804Z,18.80
2017-07-15T16:08:19.318Z,18.70
2017-07-15T16:10:46.843Z,18.70
2017-07-15T16:13:14.426Z,18.70
2017-07-15T16:15:42.345Z,18.70
2017-07-15T16:18:09.844Z,18.70
2017-07-15T16:20:37.368Z,18.80
2017-07-15T16:23:04.884Z,18.70
2017-07-15T16:25:32.416Z,18.70
2017-07-15T16:28:00.311Z,18.80
2017-07-15T16:30:27.812Z,18.80
2017-07-15T16:32:55.735Z,18.80
2017-07-15T16:35:23.240Z,18.80
2017-07-15T16:37:51.903Z,18.80
2017-07-15T16:40:19.404Z,18.90
2017-07-15T16:42:46.945Z,18.90
2017-07-15T16:45:14.847Z,18.90
2017-07-15T16:47:42.368Z,19.00
2017-07-15T16:50:09.868Z,19.00
2017-07-15T16:52:37.396Z,19.00
2017-07-15T16:55:04.911Z,19.00
2017-07-15T16:57:33.251Z,19.00
2017-07-15T17:00:01.152Z,19.00
2017-07-15T17:02:28.656Z,18.90
2017-07-15T17:04:56.175Z,18.90
2017-07-15T17:07:24.442Z,19.10
2017-07-15T17:12:20.835Z,19.20
2017-07-15T17:14:48.354Z,19.20
2017-07-15T17:17:15.880Z,19.10
2017-07-15T17:19:44.559Z,19.10
2017-07-15T17:22:12.843Z,19.00
2017-07-15T17:24:41.115Z,19.00
2017-07-15T17:27:08.644Z,18.90
2017-07-15T17:29:36.148Z,18.80
2017-07-15T17:32:03.679Z,18.80
2017-07-15T17:37:00.451Z,18.70
2017-07-15T17:39:29.471Z,18.80
2017-07-15T17:41:57.758Z,18.80
2017-07-15T17:44:25.259Z,18.80
2017-07-15T17:46:53.943Z,18.80
2017-07-15T17:49:22.224Z,18.70
2017-07-15T17:51:50.499Z,18.60
2017-07-15T17:54:18.803Z,18.50
2017-07-15T17:56:46.304Z,18.50
2017-07-15T17:59:13.824Z,18.50
2017-07-15T18:01:41.320Z,18.50
2017-07-15T18:04:09.704Z,18.50
2017-07-15T18:06:37.212Z,18.50
2017-07-15T18:09:04.744Z,18.40
2017-07-15T18:11:32.267Z,18.30
2017-07-15T18:14:00.551Z,18.30
2017-07-15T18:16:28.451Z,18.30
2017-07-15T18:18:55.970Z,18.30
2017-07-15T18:21:23.492Z,18.20
2017-07-15T18:23:50.995Z,18.20
2017-07-15T18:26:18.513Z,18.20
2017-07-15T18:28:46.072Z,18.10
2017-07-15T18:31:16.359Z,18.10
2017-07-15T18:33:43.905Z,18.00
2017-07-15T18:36:11.428Z,18.00
2017-07-15T18:38:38.932Z,18.00
2017-07-15T18:41:06.456Z,18.00
2017-07-15T18:43:35.095Z,18.00
2017-07-15T18:46:03.396Z,18.00
2017-07-15T18:48:31.297Z,17.90
2017-07-15T18:50:58.787Z,17.90
2017-07-15T18:53:26.359Z,17.80
2017-07-15T18:55:53.872Z,17.80
2017-07-15T18:58:21.399Z,17.70
2017-07-15T19:00:49.288Z,17.60
2017-07-15T19:03:16.863Z,17.60
2017-07-15T19:05:44.365Z,17.60
2017-07-15T19:08:11.917Z,17.40
2017-07-15T19:10:39.411Z,17.50
2017-07-15T19:13:06.926Z,17.40
2017-07-15T19:15:34.457Z,17.40
2017-07-15T19:18:01.965Z,17.30
2017-07-15T19:20:29.524Z,17.30
2017-07-15T19:22:57.423Z,17.30
2017-07-15T19:25:24.948Z,17.20
2017-07-15T19:27:53.595Z,17.20
2017-07-15T19:30:21.119Z,17.10
2017-07-15T19:32:48.619Z,17.00
2017-07-15T19:35:16.151Z,17.00
2017-07-15T19:37:44.052Z,16.90
2017-07-15T19:40:11.711Z,16.80
2017-07-15T19:42:39.235Z,16.80
2017-07-15T19:47:36.395Z,16.60
2017-07-15T19:50:03.899Z,16.60
2017-07-15T19:52:31.432Z,16.60
2017-07-15T19:54:59.337Z,16.60
2017-07-15T19:57:26.866Z,16.50
2017-07-15T20:02:23.295Z,16.40
2017-07-15T20:04:50.799Z,16.40
2017-07-15T20:07:18.306Z,16.30
2017-07-15T20:09:45.852Z,16.30
2017-07-15T20:12:13.364Z,16.30
2017-07-15T20:14:40.951Z,16.20
2017-07-15T20:17:09.230Z,16.20
2017-07-15T20:19:36.758Z,16.20
2017-07-15T20:22:04.660Z,16.20
2017-07-15T20:24:32.188Z,16.20
2017-07-15T20:27:00.831Z,16.10
2017-07-15T20:29:28.363Z,16.10
2017-07-15T20:31:57.376Z,16.20
2017-07-15T20:34:24.893Z,16.20
2017-07-15T20:36:58.004Z,16.10
2017-07-15T20:39:25.900Z,16.20
2017-07-15T20:41:53.414Z,16.20
2017-07-15T20:44:20.924Z,16.20
2017-07-15T20:46:49.224Z,16.20
2017-07-15T20:49:16.733Z,16.10
2017-07-15T20:51:44.648Z,16.20
2017-07-15T20:54:12.187Z,16.10
2017-07-15T20:56:40.479Z,16.10
2017-07-15T20:59:07.979Z,16.10
2017-07-15T21:01:35.892Z,16.10
2017-07-15T21:04:03.534Z,16.10
2017-07-15T21:06:31.460Z,16.10
2017-07-15T21:08:58.965Z,16.00
2017-07-15T21:13:56.115Z,15.90
2017-07-15T21:16:24.392Z,15.90
2017-07-15T21:18:51.965Z,15.90
2017-07-15T21:21:20.228Z,15.90
2017-07-15T21:23:47.745Z,15.90
2017-07-15T21:26:15.243Z,15.90
2017-07-15T21:28:43.173Z,15.90
2017-07-15T21:31:10.694Z,15.90
2017-07-15T21:33:38.632Z,15.90
2017-07-15T21:36:06.896Z,15.80
2017-07-15T21:38:34.404Z,15.90
2017-07-15T21:41:02.691Z,15.90
2017-07-15T21:43:30.581Z,15.80
2017-07-15T21:45:58.109Z,15.80
2017-07-15T21:48:25.606Z,15.70
2017-07-15T21:50:53.124Z,15.70
2017-07-15T21:53:20.635Z,15.70
2017-07-15T21:55:48.155Z,15.60
2017-07-15T21:58:15.685Z,15.70
2017-07-15T22:00:43.202Z,15.60
2017-07-15T22:03:10.800Z,15.60
2017-07-15T22:05:39.472Z,15.60
2017-07-15T22:08:07.754Z,15.60
2017-07-15T22:10:35.252Z,15.70
2017-07-15T22:13:02.774Z,15.60
2017-07-15T22:15:30.277Z,15.60
2017-07-15T22:17:57.805Z,15.60
2017-07-15T22:20:25.307Z,15.60
2017-07-15T22:22:52.823Z,15.60
2017-07-15T22:25:20.320Z,15.60
2017-07-15T22:27:47.840Z,15.60
2017-07-15T22:30:15.349Z,15.60
2017-07-15T22:32:42.845Z,15.60
2017-07-15T22:35:10.388Z,15.60
2017-07-15T22:37:37.891Z,15.60
2017-07-15T22:40:05.817Z,15.60
2017-07-15T22:42:34.456Z,15.60
2017-07-15T22:45:01.980Z,15.50
2017-07-15T22:47:29.479Z,15.50
2017-07-15T22:49:57.394Z,15.60
2017-07-15T22:52:24.895Z,15.50
2017-07-15T22:54:53.534Z,15.50
2017-07-15T22:57:21.056Z,15.40
2017-07-15T22:59:49.776Z,15.40
2017-07-15T23:02:17.299Z,15.40
2017-07-15T23:04:44.808Z,15.30
2017-07-15T23:07:12.327Z,15.30
2017-07-15T23:09:39.823Z,15.30
2017-07-15T23:12:07.357Z,15.30
2017-07-15T23:14:35.633Z,15.30
2017-07-15T23:17:03.918Z,15.30
2017-07-15T23:19:31.419Z,15.30
2017-07-15T23:21:59.695Z,15.30
2017-07-15T23:24:27.976Z,15.30
2017-07-15T23:26:55.477Z,15.30
2017-07-15T23:29:22.996Z,15.30
2017-07-15T23:31:50.508Z,15.30
2017-07-15T23:34:18.032Z,15.30
2017-07-15T23:36:45.528Z,15.30
2017-07-15T23:39:13.047Z,15.30
2017-07-15T23:41:40.548Z,15.30
2017-07-15T23:44:08.813Z,15.30
2017-07-15T23:46:36.376Z,15.30
2017-07-15T23:49:04.639Z,15.30
2017-07-15T23:51:32.159Z,15.30
2017-07-15T23:53:59.664Z,15.20
2017-07-15T23:56:27.185Z,15.30
2017-07-15T23:58:54.685Z,15.30
